Terminal Aerodrome Forecast
Issued by NWS

Home | Current Version | Previous Version | Text Only | Print | Product List | Glossary On
Versions: 1 2 3 4 5 6 7 8 9 10 11 12 13 14 15 16 17 18
000
FTUS46 KMTR 202328
TAFMRY
TAF
KMRY 202328Z 2100/2124 16020G30KT P6SM -RA BKN040 WS015/19060KT
     FM210100 16020G30KT 4SM RA BKN030 OVC040
     FM210300 17020G30KT 5SM RA BKN015 OVC030 WS015/19050KT
     FM210700 18018G26KT 5SM RA BKN015 OVC030
     FM211000 20015G20KT 5SM SHRA BR OVC030
     FM211600 24010G20KT P6SM VCSH OVC050=

USA.gov is the U.S. government's official web portal to all federal, state and local government web resources and services.